sensor_id;sensor_type;location;lat;lon;timestamp;P1;durP1;ratioP1;P2;durP2;ratioP2
39948;SDS011;29070;48.102;-1.652;2022-11-25T00:02:42;15.47;;;3.17;;
39948;SDS011;29070;48.102;-1.652;2022-11-25T00:07:43;21.95;;;3.22;;
39948;SDS011;29070;48.102;-1.652;2022-11-25T00:12:44;13.90;;;2.73;;
39948;SDS011;29070;48.102;-1.652;2022-11-25T00:17:44;20.50;;;2.73;;
39948;SDS011;29070;48.102;-1.652;2022-11-25T00:22:44;15.27;;;3.00;;
39948;SDS011;29070;48.102;-1.652;2022-11-25T00:27:45;17.52;;;3.10;;
39948;SDS011;29070;48.102;-1.652;2022-11-25T00:32:45;13.47;;;2.80;;
39948;SDS011;29070;48.102;-1.652;2022-11-25T00:37:45;11.00;;;2.50;;
39948;SDS011;29070;48.102;-1.652;2022-11-25T00:42:46;13.68;;;2.05;;
39948;SDS011;29070;48.102;-1.652;2022-11-25T00:48:05;20.10;;;2.92;;
39948;SDS011;29070;48.102;-1.652;2022-11-25T00:53:05;14.63;;;2.77;;
39948;SDS011;29070;48.102;-1.652;2022-11-25T00:58:06;16.57;;;2.47;;
39948;SDS011;29070;48.102;-1.652;2022-11-25T01:03:06;8.63;;;2.27;;
39948;SDS011;29070;48.102;-1.652;2022-11-25T01:08:06;19.23;;;2.83;;
39948;SDS011;29070;48.102;-1.652;2022-11-25T01:13:07;16.17;;;2.43;;
39948;SDS011;29070;48.102;-1.652;2022-11-25T01:18:07;16.00;;;2.10;;
39948;SDS011;29070;48.102;-1.652;2022-11-25T01:23:07;12.57;;;2.63;;
39948;SDS011;29070;48.102;-1.652;2022-11-25T01:28:08;12.23;;;2.40;;
39948;SDS011;29070;48.102;-1.652;2022-11-25T01:33:08;12.97;;;2.63;;
39948;SDS011;29070;48.102;-1.652;2022-11-25T01:38:08;22.00;;;2.80;;
39948;SDS011;29070;48.102;-1.652;2022-11-25T01:43:12;19.47;;;2.70;;
39948;SDS011;29070;48.102;-1.652;2022-11-25T01:48:15;17.10;;;2.45;;
39948;SDS011;29070;48.102;-1.652;2022-11-25T01:53:21;17.90;;;2.38;;
39948;SDS011;29070;48.102;-1.652;2022-11-25T01:58:25;15.10;;;2.47;;
39948;SDS011;29070;48.102;-1.652;2022-11-25T02:03:34;20.58;;;2.17;;
39948;SDS011;29070;48.102;-1.652;2022-11-25T02:08:41;20.00;;;3.10;;
39948;SDS011;29070;48.102;-1.652;2022-11-25T02:13:46;20.73;;;2.73;;
39948;SDS011;29070;48.102;-1.652;2022-11-25T02:18:49;8.68;;;2.00;;
39948;SDS011;29070;48.102;-1.652;2022-11-25T02:23:51;14.52;;;2.30;;
39948;SDS011;29070;48.102;-1.652;2022-11-25T02:28:58;21.73;;;2.88;;
39948;SDS011;29070;48.102;-1.652;2022-11-25T02:33:58;16.70;;;2.63;;
39948;SDS011;29070;48.102;-1.652;2022-11-25T02:38:59;18.47;;;2.93;;
39948;SDS011;29070;48.102;-1.652;2022-11-25T02:44:00;17.05;;;3.20;;
39948;SDS011;29070;48.102;-1.652;2022-11-25T02:49:01;14.13;;;2.67;;
39948;SDS011;29070;48.102;-1.652;2022-11-25T02:54:02;12.25;;;2.53;;
39948;SDS011;29070;48.102;-1.652;2022-11-25T02:59:03;15.25;;;2.88;;
39948;SDS011;29070;48.102;-1.652;2022-11-25T03:04:04;15.43;;;2.50;;
39948;SDS011;29070;48.102;-1.652;2022-11-25T03:09:04;14.60;;;2.70;;
39948;SDS011;29070;48.102;-1.652;2022-11-25T03:14:04;17.60;;;2.30;;
39948;SDS011;29070;48.102;-1.652;2022-11-25T03:19:05;19.70;;;2.33;;
39948;SDS011;29070;48.102;-1.652;2022-11-25T03:24:05;11.90;;;1.63;;
39948;SDS011;29070;48.102;-1.652;2022-11-25T03:29:05;13.18;;;1.83;;
39948;SDS011;29070;48.102;-1.652;2022-11-25T03:34:06;13.60;;;2.08;;
39948;SDS011;29070;48.102;-1.652;2022-11-25T03:39:06;15.50;;;1.80;;
39948;SDS011;29070;48.102;-1.652;2022-11-25T03:44:07;14.93;;;2.00;;
39948;SDS011;29070;48.102;-1.652;2022-11-25T03:49:07;13.47;;;2.20;;
39948;SDS011;29070;48.102;-1.652;2022-11-25T03:54:08;15.00;;;2.05;;
39948;SDS011;29070;48.102;-1.652;2022-11-25T03:59:08;11.33;;;2.00;;
39948;SDS011;29070;48.102;-1.652;2022-11-25T04:04:08;11.63;;;1.73;;
39948;SDS011;29070;48.102;-1.652;2022-11-25T04:09:09;11.20;;;1.43;;
39948;SDS011;29070;48.102;-1.652;2022-11-25T04:14:11;9.93;;;2.17;;
39948;SDS011;29070;48.102;-1.652;2022-11-25T04:19:11;6.83;;;1.70;;
39948;SDS011;29070;48.102;-1.652;2022-11-25T04:24:11;9.97;;;2.27;;
39948;SDS011;29070;48.102;-1.652;2022-11-25T04:29:12;11.90;;;1.70;;
39948;SDS011;29070;48.102;-1.652;2022-11-25T04:34:12;12.40;;;1.73;;
39948;SDS011;29070;48.102;-1.652;2022-11-25T04:39:12;11.63;;;1.53;;
39948;SDS011;29070;48.102;-1.652;2022-11-25T04:44:13;8.23;;;1.73;;
39948;SDS011;29070;48.102;-1.652;2022-11-25T04:49:13;10.57;;;1.83;;
39948;SDS011;29070;48.102;-1.652;2022-11-25T04:54:13;5.90;;;1.83;;
39948;SDS011;29070;48.102;-1.652;2022-11-25T04:59:14;11.20;;;1.23;;
39948;SDS011;29070;48.102;-1.652;2022-11-25T05:04:32;10.35;;;2.15;;
39948;SDS011;29070;48.102;-1.652;2022-11-25T05:09:33;14.50;;;3.73;;
39948;SDS011;29070;48.102;-1.652;2022-11-25T05:14:33;9.35;;;2.92;;
39948;SDS011;29070;48.102;-1.652;2022-11-25T05:19:34;12.23;;;2.92;;
39948;SDS011;29070;48.102;-1.652;2022-11-25T05:24:35;14.85;;;2.45;;
39948;SDS011;29070;48.102;-1.652;2022-11-25T05:29:35;7.55;;;2.22;;
39948;SDS011;29070;48.102;-1.652;2022-11-25T05:34:36;10.57;;;2.08;;
39948;SDS011;29070;48.102;-1.652;2022-11-25T05:39:37;15.15;;;2.88;;
39948;SDS011;29070;48.102;-1.652;2022-11-25T05:44:37;20.42;;;2.63;;
39948;SDS011;29070;48.102;-1.652;2022-11-25T05:49:38;14.27;;;2.45;;
39948;SDS011;29070;48.102;-1.652;2022-11-25T05:54:38;18.97;;;2.43;;
39948;SDS011;29070;48.102;-1.652;2022-11-25T05:59:39;7.53;;;1.73;;
39948;SDS011;29070;48.102;-1.652;2022-11-25T06:04:39;17.63;;;1.73;;
39948;SDS011;29070;48.102;-1.652;2022-11-25T06:09:39;9.13;;;1.83;;
39948;SDS011;29070;48.102;-1.652;2022-11-25T06:14:40;16.13;;;2.50;;
39948;SDS011;29070;48.102;-1.652;2022-11-25T06:19:40;14.83;;;1.83;;
39948;SDS011;29070;48.102;-1.652;2022-11-25T06:24:40;23.93;;;2.33;;
39948;SDS011;29070;48.102;-1.652;2022-11-25T06:29:41;15.63;;;2.40;;
39948;SDS011;29070;48.102;-1.652;2022-11-25T06:34:41;9.20;;;1.93;;
39948;SDS011;29070;48.102;-1.652;2022-11-25T06:39:41;12.47;;;2.60;;
39948;SDS011;29070;48.102;-1.652;2022-11-25T06:44:42;22.73;;;2.70;;
39948;SDS011;29070;48.102;-1.652;2022-11-25T06:49:42;9.07;;;1.77;;
39948;SDS011;29070;48.102;-1.652;2022-11-25T06:54:42;17.30;;;2.03;;
39948;SDS011;29070;48.102;-1.652;2022-11-25T06:59:44;11.45;;;2.25;;
39948;SDS011;29070;48.102;-1.652;2022-11-25T07:04:45;9.13;;;2.58;;
39948;SDS011;29070;48.102;-1.652;2022-11-25T07:09:45;9.98;;;2.20;;
39948;SDS011;29070;48.102;-1.652;2022-11-25T07:14:48;17.25;;;2.30;;
39948;SDS011;29070;48.102;-1.652;2022-11-25T07:19:49;18.85;;;2.75;;
39948;SDS011;29070;48.102;-1.652;2022-11-25T07:24:50;14.73;;;4.20;;
39948;SDS011;29070;48.102;-1.652;2022-11-25T07:29:50;15.97;;;3.27;;
39948;SDS011;29070;48.102;-1.652;2022-11-25T07:34:50;14.23;;;3.00;;
39948;SDS011;29070;48.102;-1.652;2022-11-25T07:39:51;15.95;;;2.75;;
39948;SDS011;29070;48.102;-1.652;2022-11-25T07:44:51;12.10;;;3.30;;
39948;SDS011;29070;48.102;-1.652;2022-11-25T07:49:51;11.50;;;2.37;;
39948;SDS011;29070;48.102;-1.652;2022-11-25T07:54:52;9.93;;;3.20;;
39948;SDS011;29070;48.102;-1.652;2022-11-25T07:59:52;12.05;;;2.60;;
39948;SDS011;29070;48.102;-1.652;2022-11-25T08:04:53;18.60;;;2.77;;
39948;SDS011;29070;48.102;-1.652;2022-11-25T08:09:53;17.97;;;3.47;;
39948;SDS011;29070;48.102;-1.652;2022-11-25T08:14:53;19.73;;;3.10;;
39948;SDS011;29070;48.102;-1.652;2022-11-25T08:19:54;19.47;;;2.93;;
39948;SDS011;29070;48.102;-1.652;2022-11-25T08:24:54;15.70;;;2.50;;
39948;SDS011;29070;48.102;-1.652;2022-11-25T08:29:54;19.27;;;3.23;;
39948;SDS011;29070;48.102;-1.652;2022-11-25T08:34:55;19.23;;;2.93;;
39948;SDS011;29070;48.102;-1.652;2022-11-25T08:39:56;20.00;;;2.65;;
39948;SDS011;29070;48.102;-1.652;2022-11-25T08:44:56;24.35;;;3.40;;
39948;SDS011;29070;48.102;-1.652;2022-11-25T08:49:56;20.47;;;2.70;;
39948;SDS011;29070;48.102;-1.652;2022-11-25T08:54:57;19.33;;;2.97;;
39948;SDS011;29070;48.102;-1.652;2022-11-25T08:59:58;16.13;;;2.47;;
39948;SDS011;29070;48.102;-1.652;2022-11-25T09:04:58;16.80;;;2.30;;
39948;SDS011;29070;48.102;-1.652;2022-11-25T09:09:59;23.50;;;3.05;;
39948;SDS011;29070;48.102;-1.652;2022-11-25T09:15:00;16.40;;;3.03;;
39948;SDS011;29070;48.102;-1.652;2022-11-25T09:20:00;13.60;;;3.00;;
39948;SDS011;29070;48.102;-1.652;2022-11-25T09:25:00;21.77;;;3.17;;
39948;SDS011;29070;48.102;-1.652;2022-11-25T09:30:01;17.38;;;3.78;;
39948;SDS011;29070;48.102;-1.652;2022-11-25T09:35:01;17.83;;;3.03;;
39948;SDS011;29070;48.102;-1.652;2022-11-25T09:40:02;25.85;;;2.90;;
39948;SDS011;29070;48.102;-1.652;2022-11-25T09:56:02;18.23;;;2.95;;
39948;SDS011;29070;48.102;-1.652;2022-11-25T10:01:13;15.10;;;2.70;;
39948;SDS011;29070;48.102;-1.652;2022-11-25T10:06:24;23.00;;;3.92;;
39948;SDS011;29070;48.102;-1.652;2022-11-25T10:11:29;19.92;;;3.35;;
39948;SDS011;29070;48.102;-1.652;2022-11-25T10:21:50;18.60;;;3.37;;
39948;SDS011;29070;48.102;-1.652;2022-11-25T10:26:53;15.02;;;2.50;;
39948;SDS011;29070;48.102;-1.652;2022-11-25T10:32:13;14.18;;;2.95;;
39948;SDS011;29070;48.102;-1.652;2022-11-25T10:37:24;21.00;;;3.28;;
39948;SDS011;29070;48.102;-1.652;2022-11-25T10:42:28;11.82;;;3.25;;
39948;SDS011;29070;48.102;-1.652;2022-11-25T10:58:27;20.13;;;3.55;;
39948;SDS011;29070;48.102;-1.652;2022-11-25T11:08:38;19.77;;;2.92;;
39948;SDS011;29070;48.102;-1.652;2022-11-25T11:13:39;13.23;;;3.00;;
39948;SDS011;29070;48.102;-1.652;2022-11-25T11:18:40;18.98;;;2.45;;
39948;SDS011;29070;48.102;-1.652;2022-11-25T11:23:51;13.38;;;3.08;;
39948;SDS011;29070;48.102;-1.652;2022-11-25T11:29:12;17.05;;;2.63;;
39948;SDS011;29070;48.102;-1.652;2022-11-25T11:50:26;19.55;;;2.15;;
39948;SDS011;29070;48.102;-1.652;2022-11-25T12:06:10;12.23;;;2.22;;
39948;SDS011;29070;48.102;-1.652;2022-11-25T12:11:11;15.52;;;1.77;;
39948;SDS011;29070;48.102;-1.652;2022-11-25T12:16:18;18.83;;;2.50;;
39948;SDS011;29070;48.102;-1.652;2022-11-25T12:21:29;9.52;;;2.30;;
39948;SDS011;29070;48.102;-1.652;2022-11-25T12:26:48;12.35;;;2.38;;
39948;SDS011;29070;48.102;-1.652;2022-11-25T12:31:57;17.17;;;2.97;;
39948;SDS011;29070;48.102;-1.652;2022-11-25T12:37:11;15.68;;;2.15;;
39948;SDS011;29070;48.102;-1.652;2022-11-25T12:42:21;9.02;;;1.85;;
39948;SDS011;29070;48.102;-1.652;2022-11-25T12:47:25;15.68;;;2.28;;
39948;SDS011;29070;48.102;-1.652;2022-11-25T13:18:13;16.42;;;2.25;;
39948;SDS011;29070;48.102;-1.652;2022-11-25T13:28:35;10.57;;;1.90;;
39948;SDS011;29070;48.102;-1.652;2022-11-25T13:48:58;8.95;;;1.55;;
39948;SDS011;29070;48.102;-1.652;2022-11-25T13:54:03;12.50;;;1.88;;
39948;SDS011;29070;48.102;-1.652;2022-11-25T14:04:09;9.18;;;1.48;;
39948;SDS011;29070;48.102;-1.652;2022-11-25T14:09:28;12.85;;;1.95;;
39948;SDS011;29070;48.102;-1.652;2022-11-25T14:25:20;14.35;;;1.60;;
39948;SDS011;29070;48.102;-1.652;2022-11-25T14:35:29;9.63;;;1.35;;
39948;SDS011;29070;48.102;-1.652;2022-11-25T14:40:57;10.68;;;1.75;;
39948;SDS011;29070;48.102;-1.652;2022-11-25T14:46:14;7.32;;;2.22;;
39948;SDS011;29070;48.102;-1.652;2022-11-25T14:51:19;9.15;;;1.60;;
39948;SDS011;29070;48.102;-1.652;2022-11-25T14:56:25;8.25;;;1.77;;
39948;SDS011;29070;48.102;-1.652;2022-11-25T15:01:28;6.60;;;1.20;;
39948;SDS011;29070;48.102;-1.652;2022-11-25T15:06:34;9.85;;;1.92;;
39948;SDS011;29070;48.102;-1.652;2022-11-25T15:11:36;8.98;;;2.30;;
39948;SDS011;29070;48.102;-1.652;2022-11-25T15:16:38;10.00;;;1.73;;
39948;SDS011;29070;48.102;-1.652;2022-11-25T15:21:40;9.70;;;1.73;;
39948;SDS011;29070;48.102;-1.652;2022-11-25T15:26:42;11.23;;;1.83;;
39948;SDS011;29070;48.102;-1.652;2022-11-25T15:31:50;17.00;;;2.72;;
39948;SDS011;29070;48.102;-1.652;2022-11-25T15:36:52;10.27;;;1.58;;
39948;SDS011;29070;48.102;-1.652;2022-11-25T15:42:40;14.85;;;2.15;;
39948;SDS011;29070;48.102;-1.652;2022-11-25T15:47:29;11.63;;;2.08;;
39948;SDS011;29070;48.102;-1.652;2022-11-25T15:52:31;8.82;;;2.28;;
39948;SDS011;29070;48.102;-1.652;2022-11-25T15:57:35;9.45;;;2.17;;
39948;SDS011;29070;48.102;-1.652;2022-11-25T16:02:38;7.10;;;1.65;;
39948;SDS011;29070;48.102;-1.652;2022-11-25T16:18:19;8.27;;;2.25;;
39948;SDS011;29070;48.102;-1.652;2022-11-25T16:23:23;10.35;;;2.00;;
39948;SDS011;29070;48.102;-1.652;2022-11-25T16:28:24;5.82;;;1.85;;
39948;SDS011;29070;48.102;-1.652;2022-11-25T16:33:24;14.98;;;2.50;;
39948;SDS011;29070;48.102;-1.652;2022-11-25T16:38:25;7.90;;;1.70;;
39948;SDS011;29070;48.102;-1.652;2022-11-25T16:43:26;13.07;;;2.22;;
39948;SDS011;29070;48.102;-1.652;2022-11-25T16:48:27;6.80;;;2.17;;
39948;SDS011;29070;48.102;-1.652;2022-11-25T16:53:27;6.78;;;2.65;;
39948;SDS011;29070;48.102;-1.652;2022-11-25T16:58:28;10.40;;;2.43;;
39948;SDS011;29070;48.102;-1.652;2022-11-25T17:03:28;11.43;;;2.80;;
39948;SDS011;29070;48.102;-1.652;2022-11-25T17:08:29;11.15;;;2.70;;
39948;SDS011;29070;48.102;-1.652;2022-11-25T17:13:29;13.77;;;3.00;;
39948;SDS011;29070;48.102;-1.652;2022-11-25T17:18:30;13.10;;;3.00;;
39948;SDS011;29070;48.102;-1.652;2022-11-25T17:23:30;9.82;;;3.13;;
39948;SDS011;29070;48.102;-1.652;2022-11-25T17:28:30;12.17;;;2.40;;
39948;SDS011;29070;48.102;-1.652;2022-11-25T17:33:31;10.82;;;3.08;;
39948;SDS011;29070;48.102;-1.652;2022-11-25T17:38:32;11.63;;;4.10;;
39948;SDS011;29070;48.102;-1.652;2022-11-25T17:43:32;14.73;;;4.28;;
39948;SDS011;29070;48.102;-1.652;2022-11-25T17:48:33;9.93;;;3.80;;
39948;SDS011;29070;48.102;-1.652;2022-11-25T17:53:35;12.05;;;4.63;;
39948;SDS011;29070;48.102;-1.652;2022-11-25T17:58:38;19.60;;;4.50;;
39948;SDS011;29070;48.102;-1.652;2022-11-25T18:03:39;10.97;;;4.77;;
39948;SDS011;29070;48.102;-1.652;2022-11-25T18:08:39;13.27;;;4.90;;
39948;SDS011;29070;48.102;-1.652;2022-11-25T18:13:40;17.70;;;7.20;;
39948;SDS011;29070;48.102;-1.652;2022-11-25T18:18:42;17.85;;;7.43;;
39948;SDS011;29070;48.102;-1.652;2022-11-25T18:23:42;22.83;;;8.67;;
39948;SDS011;29070;48.102;-1.652;2022-11-25T18:28:43;22.13;;;10.90;;
39948;SDS011;29070;48.102;-1.652;2022-11-25T18:33:43;23.45;;;10.38;;
39948;SDS011;29070;48.102;-1.652;2022-11-25T18:38:43;24.07;;;10.70;;
39948;SDS011;29070;48.102;-1.652;2022-11-25T18:43:44;24.02;;;9.90;;
39948;SDS011;29070;48.102;-1.652;2022-11-25T18:48:45;22.23;;;8.27;;
39948;SDS011;29070;48.102;-1.652;2022-11-25T18:53:45;21.17;;;8.60;;
39948;SDS011;29070;48.102;-1.652;2022-11-25T18:58:46;22.80;;;8.10;;
39948;SDS011;29070;48.102;-1.652;2022-11-25T19:03:50;21.63;;;8.25;;
39948;SDS011;29070;48.102;-1.652;2022-11-25T19:08:52;23.83;;;8.38;;
39948;SDS011;29070;48.102;-1.652;2022-11-25T19:13:53;18.50;;;8.40;;
39948;SDS011;29070;48.102;-1.652;2022-11-25T19:19:02;22.88;;;8.68;;
39948;SDS011;29070;48.102;-1.652;2022-11-25T19:24:05;21.85;;;9.20;;
39948;SDS011;29070;48.102;-1.652;2022-11-25T19:29:33;19.20;;;8.55;;
39948;SDS011;29070;48.102;-1.652;2022-11-25T19:34:35;18.40;;;8.90;;
39948;SDS011;29070;48.102;-1.652;2022-11-25T19:39:42;23.02;;;9.07;;
39948;SDS011;29070;48.102;-1.652;2022-11-25T19:44:43;17.27;;;8.80;;
39948;SDS011;29070;48.102;-1.652;2022-11-25T19:49:45;20.52;;;9.23;;
39948;SDS011;29070;48.102;-1.652;2022-11-25T19:54:45;20.13;;;9.23;;
39948;SDS011;29070;48.102;-1.652;2022-11-25T19:59:46;25.73;;;9.65;;
39948;SDS011;29070;48.102;-1.652;2022-11-25T20:04:48;21.40;;;9.23;;
39948;SDS011;29070;48.102;-1.652;2022-11-25T20:09:52;21.27;;;9.45;;
39948;SDS011;29070;48.102;-1.652;2022-11-25T20:14:55;23.02;;;10.40;;
39948;SDS011;29070;48.102;-1.652;2022-11-25T20:19:57;17.98;;;10.15;;
39948;SDS011;29070;48.102;-1.652;2022-11-25T20:25:03;20.95;;;10.52;;
39948;SDS011;29070;48.102;-1.652;2022-11-25T20:30:12;22.17;;;9.88;;
39948;SDS011;29070;48.102;-1.652;2022-11-25T20:35:17;23.60;;;10.20;;
39948;SDS011;29070;48.102;-1.652;2022-11-25T20:40:22;25.77;;;11.23;;
39948;SDS011;29070;48.102;-1.652;2022-11-25T20:45:27;25.58;;;11.48;;
39948;SDS011;29070;48.102;-1.652;2022-11-25T20:50:28;25.23;;;12.05;;
39948;SDS011;29070;48.102;-1.652;2022-11-25T20:55:29;25.92;;;11.90;;
39948;SDS011;29070;48.102;-1.652;2022-11-25T21:00:30;26.55;;;12.23;;
39948;SDS011;29070;48.102;-1.652;2022-11-25T21:05:30;25.87;;;11.83;;
39948;SDS011;29070;48.102;-1.652;2022-11-25T21:10:30;24.20;;;11.90;;
39948;SDS011;29070;48.102;-1.652;2022-11-25T21:15:33;28.33;;;13.00;;
39948;SDS011;29070;48.102;-1.652;2022-11-25T21:20:34;27.53;;;13.17;;
39948;SDS011;29070;48.102;-1.652;2022-11-25T21:25:34;30.38;;;13.82;;
39948;SDS011;29070;48.102;-1.652;2022-11-25T21:30:35;33.85;;;14.57;;
39948;SDS011;29070;48.102;-1.652;2022-11-25T21:35:36;36.33;;;15.77;;
39948;SDS011;29070;48.102;-1.652;2022-11-25T21:40:40;28.55;;;13.85;;
39948;SDS011;29070;48.102;-1.652;2022-11-25T21:45:44;32.70;;;13.88;;
39948;SDS011;29070;48.102;-1.652;2022-11-25T21:50:47;33.92;;;14.77;;
39948;SDS011;29070;48.102;-1.652;2022-11-25T21:55:47;34.03;;;14.07;;
39948;SDS011;29070;48.102;-1.652;2022-11-25T22:00:49;36.03;;;17.40;;
39948;SDS011;29070;48.102;-1.652;2022-11-25T22:05:51;37.03;;;15.25;;
39948;SDS011;29070;48.102;-1.652;2022-11-25T22:10:53;30.92;;;13.57;;
39948;SDS011;29070;48.102;-1.652;2022-11-25T22:15:55;32.53;;;15.13;;
39948;SDS011;29070;48.102;-1.652;2022-11-25T22:20:57;30.17;;;13.40;;
39948;SDS011;29070;48.102;-1.652;2022-11-25T22:25:57;24.98;;;13.05;;
39948;SDS011;29070;48.102;-1.652;2022-11-25T22:31:01;31.20;;;13.50;;
39948;SDS011;29070;48.102;-1.652;2022-11-25T22:36:05;32.67;;;15.63;;
39948;SDS011;29070;48.102;-1.652;2022-11-25T22:41:05;27.10;;;12.93;;
39948;SDS011;29070;48.102;-1.652;2022-11-25T22:46:06;38.00;;;13.17;;
39948;SDS011;29070;48.102;-1.652;2022-11-25T22:51:10;30.02;;;13.45;;
39948;SDS011;29070;48.102;-1.652;2022-11-25T22:56:16;30.25;;;14.10;;
39948;SDS011;29070;48.102;-1.652;2022-11-25T23:01:17;27.60;;;12.63;;
39948;SDS011;29070;48.102;-1.652;2022-11-25T23:06:25;37.08;;;13.95;;
39948;SDS011;29070;48.102;-1.652;2022-11-25T23:11:26;28.70;;;13.18;;
39948;SDS011;29070;48.102;-1.652;2022-11-25T23:16:26;29.40;;;13.53;;
39948;SDS011;29070;48.102;-1.652;2022-11-25T23:21:26;30.10;;;14.10;;
39948;SDS011;29070;48.102;-1.652;2022-11-25T23:26:28;33.42;;;12.70;;
39948;SDS011;29070;48.102;-1.652;2022-11-25T23:31:32;30.67;;;12.50;;
39948;SDS011;29070;48.102;-1.652;2022-11-25T23:36:44;36.92;;;13.60;;
39948;SDS011;29070;48.102;-1.652;2022-11-25T23:41:46;34.80;;;13.90;;
39948;SDS011;29070;48.102;-1.652;2022-11-25T23:46:47;29.00;;;13.20;;
39948;SDS011;29070;48.102;-1.652;2022-11-25T23:51:48;33.45;;;14.48;;
39948;SDS011;29070;48.102;-1.652;2022-11-25T23:56:49;26.05;;;12.85;;
